EmailTwitter


Surface observations / United Kingdom / EGHI (03865)

Regions: Quebec | Canada | USA | Europe | France | UK | Elsewhere
Station
Display
Info & Location for EGHI (03865) | Help decoding METAR

Weather Conditions observed on 2018/01/21 at 17:50 UTC at SOUTHAMPTON WX C, UK (EGHI)

Sky conditions: overcast.

Obstruction(s) to Vision: moderate rain.

Temperature: 10.0 Celsius.

Dewpoint: 9.0 Celsius.

Relative Humidity: 93%

Winds: Southwest at 13 km/h or 7 knots.

Mean Sea level Pressure: 100.70 kilopascals.

Horizontal visibility: 3.73 statute miles or 5.97 kilometers.

Height of the Ceiling: 183 metres ( 600 feet ).

Coded METAR:

EGHI 211750Z 23007KT 6000 RA BKN006 OVC012 10/09 Q1007=